Time;durP1;ratioP1;P1;durP2;ratioP2;P2;SDS_P1;SDS_P2;PMS_P1;PMS_P2;Temp;Humidity;BMP_temperature;BMP_pressure;BME280_temperature;BME280_humidity;BME280_pressure;Samples;Min_cycle;Max_cycle;Signal;HPM_P1;HPM_P2
2022/10/21 00:00:18;;;;;;;5.13;2.70;;;14.00;99.90;;;;;;5031443;28;20468;-48
2022/10/21 00:02:45;;;;;;;5.13;2.70;;;14.10;99.90;;;;;;5031336;28;20455;-48
2022/10/21 00:05:12;;;;;;;3.43;2.40;;;13.80;99.90;;;;;;5030869;28;21017;-49
2022/10/21 00:07:39;;;;;;;4.30;2.60;;;13.40;99.90;;;;;;5031138;28;20445;-48
2022/10/21 00:10:07;;;;;;;6.00;3.50;;;13.60;99.90;;;;;;5034298;28;20472;-50
2022/10/21 00:12:35;;;;;;;8.43;7.33;;;13.80;99.90;;;;;;5034907;28;20821;-50
2022/10/21 00:15:05;;;;;;;5.70;4.30;;;14.00;99.90;;;;;;5035092;28;20448;-48
2022/10/21 00:17:35;;;;;;;5.37;2.70;;;14.00;99.90;;;;;;5035382;28;20512;-48
2022/10/21 00:20:02;;;;;;;3.33;2.37;;;14.10;99.90;;;;;;5035077;28;20462;-48
2022/10/21 00:22:29;;;;;;;5.37;3.40;;;14.20;99.90;;;;;;5034990;28;20442;-51
2022/10/21 00:24:56;;;;;;;6.90;2.80;;;14.30;99.90;;;;;;5034511;28;20893;-48
2022/10/21 00:27:23;;;;;;;4.43;3.20;;;14.10;99.90;;;;;;5035005;28;20437;-48
2022/10/21 00:29:50;;;;;;;5.90;4.73;;;14.10;99.90;;;;;;5034968;28;20556;-50
2022/10/21 00:32:18;;;;;;;5.00;3.80;;;14.30;99.90;;;;;;5034887;28;20446;-47
2022/10/21 00:34:45;;;;;;;10.17;3.13;;;13.90;99.90;;;;;;5034454;28;20482;-49
2022/10/21 00:37:13;;;;;;;9.53;3.90;;;13.50;99.90;;;;;;5034666;28;20446;-49
2022/10/21 00:39:39;;;;;;;4.23;3.07;;;13.30;99.90;;;;;;5034301;28;20500;-47
2022/10/21 00:42:11;;;;;;;7.77;3.07;;;13.30;99.90;;;;;;5034552;28;20452;-51
2022/10/21 00:44:37;;;;;;;5.47;2.73;;;13.30;99.90;;;;;;5034477;28;20441;-47
2022/10/21 00:47:10;;;;;;;5.43;3.70;;;13.70;99.90;;;;;;5034457;28;20864;-48
2022/10/21 00:49:42;;;;;;;4.27;3.20;;;13.80;99.90;;;;;;5033743;28;20474;-48
2022/10/21 00:52:12;;;;;;;4.50;3.23;;;13.70;99.90;;;;;;5033955;28;20553;-48
2022/10/21 00:54:41;;;;;;;4.33;2.73;;;13.60;99.90;;;;;;5034175;28;20538;-49
2022/10/21 00:57:09;;;;;;;6.70;2.50;;;13.40;99.90;;;;;;5034302;28;20532;-48
2022/10/21 00:59:40;;;;;;;4.70;3.37;;;13.40;99.90;;;;;;5034755;28;20454;-51
2022/10/21 01:02:07;;;;;;;3.37;2.40;;;13.30;99.90;;;;;;5034228;28;20442;-48
2022/10/21 01:04:34;;;;;;;4.50;2.40;;;13.60;99.90;;;;;;5034255;28;20529;-49
2022/10/21 01:07:03;;;;;;;5.47;2.80;;;13.60;99.90;;;;;;5034149;28;20434;-48
2022/10/21 01:09:31;;;;;;;6.10;4.63;;;13.50;99.90;;;;;;5033985;28;21057;-48
2022/10/21 01:11:59;;;;;;;6.67;3.10;;;13.60;99.90;;;;;;5033801;28;20935;-47
2022/10/21 01:14:43;;;;;;;6.57;3.60;;;13.60;99.90;;;;;;5033771;28;20537;-47
2022/10/21 01:17:20;;;;;;;6.57;2.40;;;13.00;99.90;;;;;;5033713;28;20448;-48
2022/10/21 01:20:25;;;;;;;3.27;2.50;;;13.00;99.90;;;;;;5033634;28;20458;-50
2022/10/21 01:23:22;;;;;;;3.87;2.80;;;13.40;99.90;;;;;;5033553;28;20442;-45
2022/10/21 01:26:22;;;;;;;7.37;3.70;;;13.40;99.90;;;;;;5000555;28;20895;-48
2022/10/21 01:29:00;;;;;;;4.93;3.07;;;13.20;99.90;;;;;;5008240;28;20469;-48
2022/10/21 01:31:35;;;;;;;6.20;2.87;;;13.60;99.90;;;;;;5034002;28;20468;-48
2022/10/21 01:34:10;;;;;;;8.53;2.70;;;13.60;99.90;;;;;;5033610;28;20448;-49
2022/10/21 01:36:43;;;;;;;3.30;2.70;;;13.70;99.90;;;;;;5033703;28;20442;-48
2022/10/21 01:39:19;;;;;;;9.23;7.13;;;13.80;99.90;;;;;;5033309;28;20576;-51
2022/10/21 01:41:51;;;;;;;6.83;5.87;;;13.90;99.90;;;;;;5033806;28;20438;-49
2022/10/21 01:44:24;;;;;;;9.20;5.53;;;13.80;99.90;;;;;;5033465;28;20450;-50
2022/10/21 01:46:57;;;;;;;5.67;4.53;;;12.80;99.90;;;;;;5033323;28;20452;-48
2022/10/21 01:49:29;;;;;;;8.03;4.87;;;12.90;99.90;;;;;;5034064;28;20565;-47
2022/10/21 01:51:56;;;;;;;9.07;4.70;;;13.10;99.90;;;;;;5033160;28;20544;-47
2022/10/21 01:54:27;;;;;;;4.57;3.40;;;13.00;99.90;;;;;;5033118;28;20446;-49
2022/10/21 01:56:57;;;;;;;5.03;3.07;;;12.70;99.90;;;;;;5033218;28;20456;-47
2022/10/21 01:59:26;;;;;;;6.63;3.20;;;12.70;99.90;;;;;;5033167;28;20491;-48
2022/10/21 02:01:56;;;;;;;3.90;3.23;;;13.10;99.90;;;;;;5033371;28;20442;-48
2022/10/21 02:04:25;;;;;;;4.73;3.50;;;13.40;99.90;;;;;;5033208;28;20456;-48
2022/10/21 02:06:52;;;;;;;3.90;3.50;;;13.50;99.90;;;;;;5033208;28;20539;-48
2022/10/21 02:09:18;;;;;;;5.57;4.33;;;13.50;99.90;;;;;;5033075;28;20463;-48
2022/10/21 02:11:50;;;;;;;18.03;16.23;;;13.50;99.90;;;;;;5033026;28;20446;-47
2022/10/21 02:14:22;;;;;;;7.70;6.97;;;13.40;99.90;;;;;;5032757;28;20477;-49
2022/10/21 02:16:51;;;;;;;3.83;3.43;;;13.40;99.90;;;;;;5033101;28;20535;-49
2022/10/21 02:19:20;;;;;;;7.67;3.73;;;13.40;99.90;;;;;;5032778;28;20581;-47
2022/10/21 02:21:52;;;;;;;4.30;2.93;;;13.30;99.90;;;;;;5033006;28;20570;-48
2022/10/21 02:24:27;;;;;;;4.43;2.60;;;13.40;99.90;;;;;;5032315;28;20878;-47
2022/10/21 02:26:54;;;;;;;4.57;2.50;;;13.60;99.90;;;;;;5032659;28;20445;-47
2022/10/21 02:29:26;;;;;;;5.33;2.60;;;13.60;99.90;;;;;;5032948;28;20563;-48
2022/10/21 02:32:04;;;;;;;8.57;7.70;;;13.60;99.90;;;;;;5032901;28;20441;-48
2022/10/21 02:34:43;;;;;;;10.53;9.23;;;13.70;99.90;;;;;;5032143;28;20442;-48
2022/10/21 02:37:16;;;;;;;11.40;8.70;;;13.80;99.90;;;;;;5032512;28;20532;-49
2022/10/21 02:39:50;;;;;;;8.30;7.23;;;13.60;99.90;;;;;;5032518;28;20486;-47
2022/10/21 02:42:22;;;;;;;9.90;4.87;;;13.70;99.90;;;;;;5032648;28;20456;-47
2022/10/21 02:44:49;;;;;;;7.60;4.57;;;13.70;99.90;;;;;;5031979;28;20888;-47
2022/10/21 02:47:16;;;;;;;11.27;2.90;;;13.60;99.90;;;;;;5032322;28;20448;-50
2022/10/21 02:49:46;;;;;;;6.00;3.60;;;13.60;99.90;;;;;;5031404;28;20846;-49
2022/10/21 02:52:12;;;;;;;5.97;2.77;;;13.40;99.90;;;;;;5031872;28;20442;-47
2022/10/21 02:54:39;;;;;;;5.07;3.50;;;13.60;99.90;;;;;;5031787;28;20540;-47
2022/10/21 02:57:06;;;;;;;4.30;2.70;;;13.80;99.90;;;;;;5032028;28;20526;-48
2022/10/21 02:59:33;;;;;;;5.23;2.77;;;13.50;99.90;;;;;;5031622;28;20482;-50
2022/10/21 03:02:00;;;;;;;3.80;3.07;;;13.20;99.90;;;;;;5031947;28;20446;-48
2022/10/21 03:04:27;;;;;;;5.33;3.40;;;13.10;99.90;;;;;;5031662;28;20941;-48
2022/10/21 03:06:55;;;;;;;5.67;3.87;;;12.70;99.90;;;;;;5032028;28;20536;-49
2022/10/21 03:09:22;;;;;;;8.47;5.70;;;12.80;99.90;;;;;;5032036;28;20545;-48
2022/10/21 03:11:49;;;;;;;8.50;4.43;;;13.10;99.90;;;;;;5032092;28;20448;-48
2022/10/21 03:14:16;;;;;;;3.70;2.43;;;13.10;99.90;;;;;;5031426;28;21018;-47
2022/10/21 03:16:43;;;;;;;13.00;8.10;;;13.40;99.90;;;;;;5031579;28;20471;-48
2022/10/21 03:19:10;;;;;;;7.37;4.50;;;13.50;99.90;;;;;;5031689;28;20485;-47
2022/10/21 03:21:36;;;;;;;6.77;4.30;;;13.40;99.90;;;;;;5031873;28;20865;-50
2022/10/21 03:24:05;;;;;;;10.40;9.37;;;13.60;99.90;;;;;;5031582;28;21071;-48
2022/10/21 03:26:32;;;;;;;8.97;5.03;;;13.30;99.90;;;;;;5031734;28;20450;-48
2022/10/21 03:28:59;;;;;;;5.87;5.27;;;13.40;99.90;;;;;;5031530;28;20538;-48
2022/10/21 03:31:25;;;;;;;6.57;4.63;;;13.50;99.90;;;;;;5031615;28;20487;-48
2022/10/21 03:33:52;;;;;;;9.07;8.17;;;13.50;99.90;;;;;;5031410;28;20451;-47
2022/10/21 03:36:19;;;;;;;10.10;9.00;;;13.30;99.90;;;;;;5031898;28;20554;-48
2022/10/21 03:38:46;;;;;;;6.17;4.33;;;13.40;99.90;;;;;;5031438;28;20572;-48
2022/10/21 03:41:15;;;;;;;6.33;3.60;;;13.60;99.90;;;;;;5031552;28;20524;-48
2022/10/21 03:43:41;;;;;;;4.70;3.10;;;13.40;99.90;;;;;;5030595;28;20457;-48
2022/10/21 03:46:08;;;;;;;5.40;3.20;;;13.50;99.90;;;;;;5031613;28;20460;-48
2022/10/21 03:48:35;;;;;;;5.10;3.27;;;13.70;99.90;;;;;;5031006;28;20462;-45
2022/10/21 03:51:02;;;;;;;5.83;4.63;;;13.70;99.90;;;;;;5031128;28;20540;-47
2022/10/21 03:53:29;;;;;;;5.70;4.63;;;13.20;99.90;;;;;;5030928;28;20446;-48
2022/10/21 03:55:56;;;;;;;6.67;5.20;;;13.20;99.90;;;;;;5031497;28;20540;-48
2022/10/21 03:58:25;;;;;;;9.27;3.93;;;12.60;99.90;;;;;;5031467;28;20501;-47
2022/10/21 04:00:52;;;;;;;4.60;3.60;;;12.70;99.90;;;;;;5031750;28;20453;-48
2022/10/21 04:03:19;;;;;;;8.40;5.80;;;12.80;99.90;;;;;;5031117;28;20786;-50
2022/10/21 04:05:46;;;;;;;5.63;3.07;;;13.10;99.90;;;;;;5031480;28;20500;-50
2022/10/21 04:08:13;;;;;;;8.50;4.30;;;13.30;99.90;;;;;;5031228;28;20442;-46
2022/10/21 04:10:40;;;;;;;7.60;3.90;;;13.20;99.90;;;;;;5031746;28;20449;-47
2022/10/21 04:13:06;;;;;;;11.00;6.73;;;13.30;99.90;;;;;;5031001;28;20453;-47
2022/10/21 04:15:35;;;;;;;7.80;5.60;;;13.30;99.90;;;;;;5031178;28;20477;-47
2022/10/21 04:18:01;;;;;;;12.30;11.00;;;12.70;99.90;;;;;;5031134;28;20533;-47
2022/10/21 04:20:28;;;;;;;10.90;7.70;;;13.00;99.90;;;;;;5030997;28;21006;-47
2022/10/21 04:22:55;;;;;;;8.83;7.43;;;13.00;99.90;;;;;;5030634;28;20468;-46
2022/10/21 04:25:22;;;;;;;8.30;5.97;;;12.90;99.90;;;;;;5031279;28;20533;-46
2022/10/21 04:27:49;;;;;;;8.47;7.23;;;13.10;99.90;;;;;;5031047;28;20540;-48
2022/10/21 04:30:16;;;;;;;10.53;9.40;;;13.30;99.90;;;;;;5031083;28;20467;-48
2022/10/21 04:32:44;;;;;;;8.83;6.80;;;13.20;99.90;;;;;;5030619;28;20535;-46
2022/10/21 04:35:11;;;;;;;8.90;8.00;;;13.40;99.90;;;;;;5030667;28;20470;-46
2022/10/21 04:37:39;;;;;;;12.40;7.10;;;13.30;99.90;;;;;;5030508;28;20469;-48
2022/10/21 04:40:07;;;;;;;8.47;7.53;;;13.40;99.90;;;;;;5030753;28;20518;-50
2022/10/21 04:42:34;;;;;;;5.40;4.70;;;13.50;99.90;;;;;;5031050;28;20538;-49
2022/10/21 04:45:01;;;;;;;5.10;3.50;;;13.50;99.90;;;;;;5030577;28;20540;-47
2022/10/21 04:47:28;;;;;;;4.63;2.43;;;13.40;99.90;;;;;;5030736;28;20819;-48
2022/10/21 04:49:56;;;;;;;6.10;4.30;;;13.30;99.90;;;;;;5030159;28;21075;-47
2022/10/21 04:52:23;;;;;;;4.80;3.03;;;13.50;99.90;;;;;;5030522;28;20592;-46
2022/10/21 04:54:50;;;;;;;6.33;4.93;;;13.30;99.90;;;;;;5030651;28;20491;-47
2022/10/21 04:57:17;;;;;;;10.37;6.23;;;13.40;99.90;;;;;;5033918;28;20811;-47
2022/10/21 04:59:43;;;;;;;9.10;6.60;;;12.70;99.90;;;;;;5034139;28;20574;-47
2022/10/21 05:02:10;;;;;;;10.00;6.20;;;13.00;99.90;;;;;;5034398;28;20448;-47
2022/10/21 05:04:37;;;;;;;7.43;6.10;;;13.20;99.90;;;;;;5033943;28;20528;-47
2022/10/21 05:07:05;;;;;;;7.27;6.57;;;13.20;99.90;;;;;;5034253;28;20542;-46
2022/10/21 05:09:32;;;;;;;8.37;5.47;;;12.90;99.90;;;;;;5034079;28;20981;-47
2022/10/21 05:11:59;;;;;;;6.87;5.90;;;12.80;99.90;;;;;;5033772;28;20983;-46
2022/10/21 05:14:26;;;;;;;8.77;6.20;;;13.10;99.90;;;;;;5033395;28;21021;-47
2022/10/21 05:16:53;;;;;;;8.33;5.50;;;12.40;99.90;;;;;;5033920;28;20540;-47
2022/10/21 05:19:20;;;;;;;9.03;6.20;;;12.50;99.90;;;;;;5033623;28;20551;-47
2022/10/21 05:21:46;;;;;;;13.63;4.93;;;12.70;99.90;;;;;;5033852;28;20536;-48
2022/10/21 05:24:15;;;;;;;6.53;4.93;;;12.40;99.90;;;;;;5033392;28;20442;-46
2022/10/21 05:26:42;;;;;;;5.90;3.90;;;12.30;99.90;;;;;;5033704;28;20444;-47
2022/10/21 05:29:09;;;;;;;12.67;4.33;;;12.60;99.90;;;;;;5033292;28;20464;-48
2022/10/21 05:31:36;;;;;;;4.63;3.10;;;12.50;99.90;;;;;;5033405;28;20451;-46
2022/10/21 05:34:03;;;;;;;3.83;3.20;;;12.60;99.90;;;;;;5033626;28;20537;-48
2022/10/21 05:36:30;;;;;;;16.73;10.27;;;12.90;99.90;;;;;;5033310;28;20532;-46
2022/10/21 05:38:57;;;;;;;8.43;6.70;;;13.10;99.90;;;;;;5033235;28;20465;-50
2022/10/21 05:41:25;;;;;;;8.40;6.70;;;12.80;99.90;;;;;;5033673;28;20486;-48
2022/10/21 05:43:52;;;;;;;9.17;7.60;;;12.50;99.90;;;;;;5033151;28;20548;-46
2022/10/21 05:46:19;;;;;;;6.90;5.40;;;12.80;99.90;;;;;;5033457;28;20449;-46
2022/10/21 05:48:46;;;;;;;8.43;6.07;;;12.60;99.90;;;;;;5032626;28;20468;-48
2022/10/21 05:51:13;;;;;;;7.87;5.10;;;12.30;99.90;;;;;;5033415;28;20452;-47
2022/10/21 05:53:39;;;;;;;7.10;5.43;;;12.70;99.90;;;;;;5032314;28;20450;-46
2022/10/21 05:56:08;;;;;;;7.10;4.57;;;12.60;99.90;;;;;;5033259;28;20532;-48
2022/10/21 05:58:36;;;;;;;6.90;4.70;;;12.10;99.90;;;;;;5033380;28;20890;-46
2022/10/21 06:01:03;;;;;;;6.80;5.57;;;12.40;99.90;;;;;;5033041;28;20489;-48
2022/10/21 06:03:33;;;;;;;7.83;5.50;;;12.60;99.90;;;;;;5032794;28;20884;-48
2022/10/21 06:06:03;;;;;;;7.53;4.70;;;12.60;99.90;;;;;;5032575;28;20441;-47
2022/10/21 06:08:31;;;;;;;11.07;5.03;;;12.90;99.90;;;;;;5032826;28;20473;-48
2022/10/21 06:11:02;;;;;;;6.50;5.70;;;12.90;99.90;;;;;;5033029;28;20477;-47
2022/10/21 06:13:29;;;;;;;9.03;4.53;;;13.00;99.90;;;;;;5032573;28;20446;-47
2022/10/21 06:15:58;;;;;;;6.30;4.70;;;12.80;99.90;;;;;;5032799;28;20541;-47
2022/10/21 06:18:25;;;;;;;8.97;6.70;;;12.90;99.90;;;;;;5032352;28;20473;-46
2022/10/21 06:20:52;;;;;;;9.87;6.77;;;13.10;99.90;;;;;;5032350;28;20470;-47
2022/10/21 06:23:19;;;;;;;12.20;7.00;;;13.10;99.90;;;;;;5032586;28;20467;-46
2022/10/21 06:25:55;;;;;;;14.17;10.87;;;13.10;99.90;;;;;;5032796;28;20447;-47
2022/10/21 06:28:22;;;;;;;13.63;10.50;;;13.10;99.90;;;;;;5032533;28;20462;-46
2022/10/21 06:30:48;;;;;;;15.73;13.80;;;13.20;99.90;;;;;;5032772;28;20451;-49
2022/10/21 06:33:17;;;;;;;15.70;14.10;;;13.30;99.90;;;;;;5032011;28;20446;-47
2022/10/21 06:35:44;;;;;;;21.77;19.50;;;13.10;99.90;;;;;;5032554;28;20446;-48
2022/10/21 06:38:11;;;;;;;15.40;10.10;;;13.00;99.90;;;;;;5032390;28;20449;-50
2022/10/21 06:40:37;;;;;;;7.60;5.63;;;13.10;99.90;;;;;;5032493;28;20576;-46
2022/10/21 06:43:04;;;;;;;8.13;5.60;;;13.20;99.90;;;;;;5032238;28;20533;-46
2022/10/21 06:45:31;;;;;;;7.70;6.03;;;13.30;99.90;;;;;;5032161;28;20821;-48
2022/10/21 06:47:58;;;;;;;6.10;5.50;;;13.30;99.90;;;;;;5032169;28;20453;-46
2022/10/21 06:50:26;;;;;;;13.30;8.97;;;13.40;99.90;;;;;;5031893;28;20454;-46
2022/10/21 06:52:53;;;;;;;8.93;7.30;;;13.10;99.90;;;;;;5032253;28;20529;-47
2022/10/21 06:55:20;;;;;;;10.63;7.07;;;13.00;99.90;;;;;;5033192;28;20452;-47
2022/10/21 06:57:47;;;;;;;11.20;8.17;;;13.30;99.90;;;;;;5033460;28;20439;-46
2022/10/21 07:00:14;;;;;;;12.30;9.37;;;13.40;99.90;;;;;;5031984;28;20481;-46
2022/10/21 07:02:41;;;;;;;12.77;9.90;;;13.20;99.90;;;;;;5032010;28;20531;-48
2022/10/21 07:05:09;;;;;;;11.07;9.93;;;13.00;99.90;;;;;;5031709;28;20496;-49
2022/10/21 07:07:37;;;;;;;21.13;14.63;;;13.20;99.90;;;;;;5032094;28;20440;-46
2022/10/21 07:10:05;;;;;;;15.50;9.87;;;12.90;99.90;;;;;;5031567;28;20469;-48
2022/10/21 07:12:31;;;;;;;13.10;8.17;;;12.40;99.90;;;;;;5031431;28;20517;-46
2022/10/21 07:14:58;;;;;;;11.10;8.23;;;12.50;99.90;;;;;;5031571;28;20542;-47
2022/10/21 07:17:25;;;;;;;11.47;8.93;;;12.40;99.90;;;;;;5031876;28;20444;-48
2022/10/21 07:19:53;;;;;;;13.07;9.50;;;12.40;99.90;;;;;;5031101;28;20487;-46
2022/10/21 07:22:19;;;;;;;12.80;8.70;;;12.60;99.90;;;;;;5031696;28;20457;-49
2022/10/21 07:24:48;;;;;;;12.20;9.03;;;12.90;99.90;;;;;;5031170;28;20955;-47
2022/10/21 07:27:15;;;;;;;12.00;9.87;;;13.10;99.90;;;;;;5031655;28;20477;-48
2022/10/21 07:29:41;;;;;;;13.70;10.63;;;13.30;99.90;;;;;;5031410;28;20550;-46
2022/10/21 07:32:08;;;;;;;13.63;10.17;;;13.20;99.90;;;;;;5031426;28;21014;-46
2022/10/21 07:34:35;;;;;;;9.07;7.50;;;13.20;99.90;;;;;;5031170;28;20541;-47
2022/10/21 07:37:02;;;;;;;8.13;6.97;;;12.90;99.90;;;;;;5031377;28;20445;-47
2022/10/21 07:39:29;;;;;;;7.93;7.13;;;13.10;99.90;;;;;;5029750;28;20474;-48
2022/10/21 07:41:58;;;;;;;9.50;7.07;;;13.40;99.90;;;;;;5031705;28;20453;-48
2022/10/21 07:44:26;;;;;;;8.53;6.87;;;13.50;99.90;;;;;;5030905;28;20445;-49
2022/10/21 07:46:53;;;;;;;14.03;6.70;;;13.00;99.90;;;;;;5031085;28;21037;-46
2022/10/21 07:49:21;;;;;;;7.67;6.97;;;13.10;99.90;;;;;;5032268;28;20479;-46
2022/10/21 07:51:49;;;;;;;10.53;7.10;;;13.30;99.90;;;;;;5030872;28;20537;-48
2022/10/21 07:54:18;;;;;;;10.70;7.10;;;13.40;99.90;;;;;;5031052;28;20442;-47
2022/10/21 07:56:47;;;;;;;8.27;7.03;;;13.50;99.90;;;;;;5031069;28;20931;-47
2022/10/21 07:59:17;;;;;;;12.83;11.07;;;13.50;99.90;;;;;;5031091;28;20473;-47
2022/10/21 08:01:46;;;;;;;11.10;9.50;;;13.50;99.90;;;;;;5030836;28;20565;-44
2022/10/21 08:04:15;;;;;;;12.00;10.40;;;13.60;99.90;;;;;;5030566;28;20490;-47
2022/10/21 08:06:42;;;;;;;38.03;9.20;;;13.60;99.90;;;;;;5031104;28;20536;-47
2022/10/21 08:09:08;;;;;;;12.97;8.07;;;13.70;99.90;;;;;;5031215;28;20557;-47
2022/10/21 08:11:35;;;;;;;13.93;7.70;;;13.70;99.90;;;;;;5031024;28;20446;-48
2022/10/21 08:14:06;;;;;;;9.60;7.70;;;13.80;99.90;;;;;;5030763;28;20529;-46
2022/10/21 08:16:35;;;;;;;10.40;7.40;;;13.90;99.90;;;;;;5030834;28;20453;-47
2022/10/21 08:19:03;;;;;;;10.07;8.10;;;13.90;99.90;;;;;;5031097;28;20470;-47
2022/10/21 08:21:30;;;;;;;11.57;9.30;;;13.90;99.90;;;;;;5031073;28;20492;-46
2022/10/21 08:23:57;;;;;;;12.67;10.23;;;13.80;99.90;;;;;;5030477;28;20446;-49
2022/10/21 08:26:24;;;;;;;14.07;9.73;;;13.80;99.90;;;;;;5031118;28;21026;-47
2022/10/21 08:28:51;;;;;;;9.37;7.77;;;13.90;99.90;;;;;;5030762;28;20466;-48
2022/10/21 08:31:20;;;;;;;10.53;8.60;;;14.00;99.90;;;;;;5034302;28;20450;-48
2022/10/21 08:33:49;;;;;;;14.47;11.23;;;14.00;99.90;;;;;;5034592;28;20974;-48
2022/10/21 08:36:18;;;;;;;12.33;10.70;;;14.00;99.90;;;;;;5034766;28;20441;-47
2022/10/21 08:38:45;;;;;;;9.10;8.20;;;14.00;99.90;;;;;;5034802;28;20646;-48
2022/10/21 08:41:35;;;;;;;17.83;14.63;;;14.10;99.90;;;;;;5034576;28;20861;-47
2022/10/21 08:44:06;;;;;;;16.17;13.73;;;14.10;99.90;;;;;;5034489;28;20450;-47
2022/10/21 08:46:37;;;;;;;11.33;8.20;;;14.10;99.90;;;;;;5034512;28;20446;-49
2022/10/21 08:49:12;;;;;;;9.90;7.90;;;14.00;99.90;;;;;;5034020;28;20564;-47
2022/10/21 08:51:43;;;;;;;19.43;8.30;;;14.10;99.90;;;;;;5034406;28;20459;-46
2022/10/21 08:54:17;;;;;;;8.47;7.47;;;14.20;99.90;;;;;;5033998;28;21001;-46
2022/10/21 08:56:45;;;;;;;10.33;9.30;;;14.00;99.90;;;;;;5034496;28;20465;-47
2022/10/21 08:59:18;;;;;;;10.50;6.77;;;14.00;99.90;;;;;;5034202;28;20472;-47
2022/10/21 09:01:54;;;;;;;9.80;7.53;;;14.10;99.90;;;;;;5034189;28;20881;-47
2022/10/21 09:04:34;;;;;;;9.20;6.37;;;14.10;99.90;;;;;;5033688;28;20454;-47
2022/10/21 09:07:12;;;;;;;10.67;8.70;;;13.90;99.90;;;;;;5034426;28;20445;-47
2022/10/21 09:09:47;;;;;;;12.80;8.37;;;14.00;99.90;;;;;;5034166;28;20475;-47
2022/10/21 09:12:20;;;;;;;10.37;6.50;;;14.10;99.90;;;;;;5033772;28;20532;-48
2022/10/21 09:15:17;;;;;;;8.33;6.70;;;13.80;99.90;;;;;;5033985;28;20485;-48
2022/10/21 09:18:01;;;;;;;9.33;7.53;;;13.70;99.90;;;;;;5033943;28;20474;-46
2022/10/21 09:20:41;;;;;;;10.57;6.20;;;13.70;99.90;;;;;;5033827;28;20573;-47
2022/10/21 09:23:31;;;;;;;56.53;17.67;;;13.70;99.90;;;;;;5033661;28;20446;-46
2022/10/21 09:26:01;;;;;;;8.37;5.80;;;13.60;99.90;;;;;;5033755;28;20455;-48
2022/10/21 09:28:30;;;;;;;7.87;5.40;;;13.90;99.90;;;;;;5033723;28;21037;-46
2022/10/21 09:31:01;;;;;;;42.57;15.80;;;13.80;99.90;;;;;;5033789;28;20477;-47
2022/10/21 09:33:31;;;;;;;7.60;5.17;;;13.70;99.90;;;;;;5033208;28;20529;-48
2022/10/21 09:36:05;;;;;;;9.77;6.87;;;13.90;99.90;;;;;;5033712;28;20529;-47
2022/10/21 09:38:41;;;;;;;8.60;5.30;;;14.00;99.90;;;;;;5036983;28;20469;-49
2022/10/21 09:41:16;;;;;;;8.57;5.83;;;14.00;99.90;;;;;;5033070;28;20478;-50
2022/10/21 09:43:43;;;;;;;10.80;6.00;;;14.00;99.90;;;;;;5033103;28;20481;-47
2022/10/21 09:46:12;;;;;;;8.40;5.70;;;13.80;99.90;;;;;;5033882;28;20445;-47
2022/10/21 09:48:43;;;;;;;8.17;6.70;;;13.80;99.90;;;;;;5033095;28;20549;-47
2022/10/21 09:51:15;;;;;;;8.23;6.90;;;14.00;99.90;;;;;;5033404;28;20530;-47
2022/10/21 09:53:47;;;;;;;6.80;6.10;;;14.10;99.90;;;;;;5032719;28;20446;-47
2022/10/21 09:56:19;;;;;;;8.93;6.23;;;14.30;99.90;;;;;;5033245;28;20442;-47
2022/10/21 09:58:50;;;;;;;6.23;4.90;;;14.40;99.90;;;;;;5033032;28;20990;-47
2022/10/21 10:01:19;;;;;;;8.10;5.27;;;14.50;99.90;;;;;;5032804;28;21013;-47
2022/10/21 10:03:48;;;;;;;12.90;5.77;;;14.70;99.90;;;;;;5033165;28;20525;-48
2022/10/21 10:06:32;;;;;;;9.27;6.60;;;14.80;99.90;;;;;;5032830;28;20474;-48
2022/10/21 10:09:16;;;;;;;8.33;5.17;;;14.80;99.90;;;;;;5032821;28;20470;-48
2022/10/21 10:11:53;;;;;;;7.90;5.03;;;14.90;99.90;;;;;;5032987;28;20521;-47
2022/10/21 10:14:26;;;;;;;9.53;5.63;;;14.90;99.90;;;;;;5032457;28;20449;-47
2022/10/21 10:16:53;;;;;;;9.37;4.83;;;15.00;99.90;;;;;;5033277;28;20873;-48
2022/10/21 10:19:22;;;;;;;8.57;5.00;;;15.00;99.90;;;;;;5032670;28;20549;-48
2022/10/21 10:22:08;;;;;;;7.90;5.50;;;14.90;99.90;;;;;;5032680;28;20477;-47
2022/10/21 10:24:36;;;;;;;10.30;5.20;;;15.00;99.90;;;;;;5032269;28;20450;-50
2022/10/21 10:27:05;;;;;;;13.43;5.53;;;15.00;99.90;;;;;;5032438;28;20451;-47
2022/10/21 10:29:33;;;;;;;6.10;5.50;;;15.10;99.90;;;;;;5032795;28;20466;-47
2022/10/21 10:32:03;;;;;;;8.13;4.83;;;15.10;99.90;;;;;;5032326;28;20898;-48
2022/10/21 10:34:33;;;;;;;11.57;4.60;;;15.20;99.90;;;;;;5032398;28;20530;-47
2022/10/21 10:37:05;;;;;;;6.63;4.90;;;15.20;99.90;;;;;;5032543;28;20533;-47
2022/10/21 10:39:36;;;;;;;6.30;3.80;;;15.20;99.90;;;;;;5031633;28;20455;-47
2022/10/21 10:42:04;;;;;;;5.70;4.07;;;15.30;99.90;;;;;;5031812;28;20990;-46
2022/10/21 10:44:36;;;;;;;6.47;4.60;;;15.30;99.90;;;;;;5031573;28;20450;-47
2022/10/21 10:47:05;;;;;;;7.20;4.53;;;15.40;99.90;;;;;;5032482;28;20445;-47
2022/10/21 10:49:38;;;;;;;8.30;4.80;;;15.30;99.90;;;;;;5028592;28;20462;-47
2022/10/21 10:52:19;;;;;;;9.50;5.47;;;15.30;99.90;;;;;;5031703;28;20439;-47
2022/10/21 10:54:47;;;;;;;10.33;4.90;;;15.30;99.90;;;;;;5031304;28;20442;-47
2022/10/21 10:57:17;;;;;;;8.40;5.40;;;15.20;99.90;;;;;;5032109;28;20473;-47
2022/10/21 10:59:48;;;;;;;9.30;5.00;;;15.30;99.90;;;;;;5031574;28;20466;-48
2022/10/21 11:02:34;;;;;;;8.60;4.77;;;15.30;99.90;;;;;;5031937;28;20478;-47
2022/10/21 11:05:16;;;;;;;8.63;4.63;;;15.40;99.90;;;;;;5031787;28;20629;-46
2022/10/21 11:07:48;;;;;;;8.80;5.90;;;15.50;99.90;;;;;;5031061;28;20446;-48
2022/10/21 11:10:37;;;;;;;6.53;4.67;;;15.50;99.90;;;;;;5030608;28;20568;-47
2022/10/21 11:13:09;;;;;;;9.53;5.13;;;15.40;99.90;;;;;;5028562;28;20537;-50
2022/10/21 11:15:48;;;;;;;6.97;5.47;;;15.50;99.90;;;;;;5031097;28;20542;-49
2022/10/21 11:18:21;;;;;;;7.83;4.50;;;15.60;99.90;;;;;;5031117;28;20442;-47
2022/10/21 11:20:58;;;;;;;10.43;5.50;;;15.70;99.90;;;;;;5031110;28;20858;-47
2022/10/21 11:23:41;;;;;;;7.10;4.17;;;15.70;99.90;;;;;;5030893;28;20524;-49
2022/10/21 11:26:19;;;;;;;10.20;4.70;;;15.70;99.90;;;;;;5031590;28;21038;-48
2022/10/21 11:28:53;;;;;;;13.13;8.37;;;15.80;99.90;;;;;;5031627;28;20986;-47
2022/10/21 11:31:28;;;;;;;6.97;5.77;;;15.90;99.90;;;;;;5031344;28;20451;-47
2022/10/21 11:34:01;;;;;;;9.47;5.53;;;15.90;99.90;;;;;;5031171;28;20525;-48
2022/10/21 11:36:35;;;;;;;9.80;5.57;;;15.90;99.90;;;;;;5031711;28;20457;-47
2022/10/21 11:39:34;;;;;;;8.83;6.10;;;15.90;99.90;;;;;;5031337;28;20988;-45
2022/10/21 11:42:09;;;;;;;8.73;5.97;;;15.90;99.90;;;;;;5030158;28;20478;-48
2022/10/21 11:44:49;;;;;;;7.50;6.50;;;16.00;99.90;;;;;;5030778;28;20969;-47
2022/10/21 11:47:25;;;;;;;8.70;5.43;;;16.10;99.90;;;;;;5032166;28;20637;-47
2022/10/21 11:50:00;;;;;;;13.80;6.87;;;16.20;99.90;;;;;;5031204;28;21066;-48
2022/10/21 11:52:36;;;;;;;10.27;6.60;;;16.10;99.90;;;;;;5031146;28;20533;-48
2022/10/21 11:55:31;;;;;;;7.73;6.23;;;16.10;99.90;;;;;;5030520;28;20448;-48
2022/10/21 11:58:07;;;;;;;9.37;5.73;;;16.10;99.90;;;;;;5031174;28;20449;-48
2022/10/21 12:00:40;;;;;;;9.03;6.20;;;16.20;99.90;;;;;;5031642;28;20442;-47
2022/10/21 12:03:43;;;;;;;9.90;6.10;;;16.30;99.90;;;;;;5031079;28;20819;-50
2022/10/21 12:06:26;;;;;;;10.33;6.40;;;16.20;99.90;;;;;;5034725;28;20444;-49
2022/10/21 12:08:59;;;;;;;14.87;6.80;;;16.30;99.90;;;;;;5035032;28;21062;-49
2022/10/21 12:11:34;;;;;;;8.13;5.80;;;16.20;99.90;;;;;;5034773;28;20815;-48
2022/10/21 12:14:15;;;;;;;9.98;6.88;;;16.20;99.90;;;;;;5033799;28;20437;-48
2022/10/21 12:16:43;;;;;;;14.20;6.33;;;16.30;99.90;;;;;;5035261;28;20657;-50
2022/10/21 12:19:13;;;;;;;11.37;6.23;;;16.30;99.90;;;;;;5034984;28;21074;-51
2022/10/21 12:21:44;;;;;;;11.00;5.67;;;16.20;99.90;;;;;;5034847;28;21018;-48
2022/10/21 12:24:24;;;;;;;58.70;22.00;;;16.40;99.90;;;;;;5034011;28;20521;-50
2022/10/21 12:26:59;;;;;;;12.53;7.27;;;16.30;99.90;;;;;;5033030;28;20442;-49
2022/10/21 12:29:41;;;;;;;10.80;6.77;;;16.40;99.90;;;;;;5032870;28;20557;-48
2022/10/21 12:32:19;;;;;;;8.63;6.23;;;16.50;99.90;;;;;;5033302;28;20450;-50
2022/10/21 12:34:46;;;;;;;8.33;6.57;;;16.60;99.90;;;;;;5032834;28;20533;-48
2022/10/21 12:37:42;;;;;;;8.90;6.63;;;16.70;99.90;;;;;;5033726;28;20541;-50
2022/10/21 12:40:14;;;;;;;11.67;7.60;;;16.60;99.90;;;;;;5034094;28;20925;-48
2022/10/21 12:42:47;;;;;;;7.53;6.10;;;16.60;99.90;;;;;;5035068;28;20513;-49
2022/10/21 12:45:28;;;;;;;12.07;7.50;;;16.60;99.90;;;;;;5034455;28;20442;-49
2022/10/21 12:47:56;;;;;;;11.27;6.63;;;16.70;99.90;;;;;;5034559;28;20804;-48
2022/10/21 12:50:28;;;;;;;11.87;7.10;;;16.70;99.90;;;;;;5033758;28;20482;-48
2022/10/21 12:53:11;;;;;;;16.20;9.87;;;16.70;99.90;;;;;;5034221;28;20456;-50
2022/10/21 12:55:41;;;;;;;11.33;7.50;;;16.70;99.90;;;;;;5034509;28;20894;-51
2022/10/21 12:58:22;;;;;;;10.10;7.70;;;16.80;99.90;;;;;;5034354;28;20442;-48
2022/10/21 13:00:57;;;;;;;11.10;7.30;;;16.80;99.90;;;;;;5034307;28;20477;-51